sensor_id;sensor_type;location;lat;lon;timestamp;pressure;altitude;pressure_sealevel;temperature;humidity
78121;BME280;67585;44.802;10.332;2023-05-07T00:01:04;100913.31;;;20.67;48.46
78121;BME280;67585;44.802;10.332;2023-05-07T00:03:31;100916.13;;;20.53;49.14
78121;BME280;67585;44.802;10.332;2023-05-07T00:05:57;100889.06;;;20.34;49.37
78121;BME280;67585;44.802;10.332;2023-05-07T00:08:23;100895.50;;;20.30;49.59
78121;BME280;67585;44.802;10.332;2023-05-07T00:10:48;100896.41;;;20.16;49.13
78121;BME280;67585;44.802;10.332;2023-05-07T00:13:14;100902.72;;;20.25;48.38
78121;BME280;67585;44.802;10.332;2023-05-07T00:15:40;100910.88;;;20.17;48.71
78121;BME280;67585;44.802;10.332;2023-05-07T00:18:05;100913.31;;;20.18;49.52
78121;BME280;67585;44.802;10.332;2023-05-07T00:20:30;100902.75;;;20.34;49.12
78121;BME280;67585;44.802;10.332;2023-05-07T00:22:56;100908.22;;;20.34;50.92
78121;BME280;67585;44.802;10.332;2023-05-07T00:25:21;100919.09;;;20.17;51.92
78121;BME280;67585;44.802;10.332;2023-05-07T00:27:47;100898.69;;;19.83;53.51
78121;BME280;67585;44.802;10.332;2023-05-07T00:30:12;100931.03;;;19.90;54.63
78121;BME280;67585;44.802;10.332;2023-05-07T00:32:38;100926.22;;;20.26;54.11
78121;BME280;67585;44.802;10.332;2023-05-07T00:35:05;100932.41;;;20.10;56.51
78121;BME280;67585;44.802;10.332;2023-05-07T00:37:30;100927.94;;;19.82;58.21
78121;BME280;67585;44.802;10.332;2023-05-07T00:39:56;100923.50;;;19.64;58.60
78121;BME280;67585;44.802;10.332;2023-05-07T00:42:22;100920.66;;;19.69;58.40
78121;BME280;67585;44.802;10.332;2023-05-07T00:44:47;100910.69;;;19.73;58.77
78121;BME280;67585;44.802;10.332;2023-05-07T00:47:13;100914.56;;;19.72;59.14
78121;BME280;67585;44.802;10.332;2023-05-07T00:49:41;100905.97;;;19.65;58.91
78121;BME280;67585;44.802;10.332;2023-05-07T00:52:13;100925.88;;;19.57;59.65
78121;BME280;67585;44.802;10.332;2023-05-07T00:54:40;100946.13;;;19.78;59.15
78121;BME280;67585;44.802;10.332;2023-05-07T00:57:05;100946.84;;;19.70;59.98
78121;BME280;67585;44.802;10.332;2023-05-07T00:59:32;100942.91;;;19.85;59.65
78121;BME280;67585;44.802;10.332;2023-05-07T01:01:58;100940.75;;;20.04;59.47
78121;BME280;67585;44.802;10.332;2023-05-07T01:04:24;100920.91;;;19.59;61.04
78121;BME280;67585;44.802;10.332;2023-05-07T01:06:50;100917.34;;;19.58;61.09
78121;BME280;67585;44.802;10.332;2023-05-07T01:09:16;100943.50;;;19.73;60.71
78121;BME280;67585;44.802;10.332;2023-05-07T01:11:43;100941.31;;;19.84;61.39
78121;BME280;67585;44.802;10.332;2023-05-07T01:14:09;100891.69;;;19.68;61.21
78121;BME280;67585;44.802;10.332;2023-05-07T01:16:36;100932.13;;;19.80;61.29
78121;BME280;67585;44.802;10.332;2023-05-07T01:19:01;100942.09;;;19.76;62.54
78121;BME280;67585;44.802;10.332;2023-05-07T01:21:33;100939.16;;;19.72;61.82
78121;BME280;67585;44.802;10.332;2023-05-07T01:24:00;100937.78;;;19.83;61.70
78121;BME280;67585;44.802;10.332;2023-05-07T01:26:25;100945.41;;;19.95;62.03
78121;BME280;67585;44.802;10.332;2023-05-07T01:28:51;100916.22;;;19.82;61.75
78121;BME280;67585;44.802;10.332;2023-05-07T01:31:17;100952.63;;;19.91;62.25
78121;BME280;67585;44.802;10.332;2023-05-07T01:33:44;100921.31;;;19.75;61.63
78121;BME280;67585;44.802;10.332;2023-05-07T01:36:11;100931.03;;;19.81;62.53
78121;BME280;67585;44.802;10.332;2023-05-07T01:38:39;100931.06;;;19.67;62.10
78121;BME280;67585;44.802;10.332;2023-05-07T01:41:06;100946.16;;;19.64;62.48
78121;BME280;67585;44.802;10.332;2023-05-07T01:43:32;100907.66;;;19.52;62.53
78121;BME280;67585;44.802;10.332;2023-05-07T01:45:58;100934.50;;;19.50;63.27
78121;BME280;67585;44.802;10.332;2023-05-07T01:48:24;100967.00;;;19.74;62.18
78121;BME280;67585;44.802;10.332;2023-05-07T01:50:50;100935.13;;;19.70;61.93
78121;BME280;67585;44.802;10.332;2023-05-07T01:53:16;100965.13;;;19.83;62.47
78121;BME280;67585;44.802;10.332;2023-05-07T01:55:42;100955.22;;;19.96;62.14
78121;BME280;67585;44.802;10.332;2023-05-07T01:58:07;100928.13;;;19.63;62.15
78121;BME280;67585;44.802;10.332;2023-05-07T02:00:33;100948.09;;;19.64;63.02
78121;BME280;67585;44.802;10.332;2023-05-07T02:02:58;100936.16;;;19.60;63.00
78121;BME280;67585;44.802;10.332;2023-05-07T02:05:24;100935.22;;;19.19;64.09
78121;BME280;67585;44.802;10.332;2023-05-07T02:07:49;100958.44;;;19.53;63.00
78121;BME280;67585;44.802;10.332;2023-05-07T02:10:14;100954.06;;;19.66;62.26
78121;BME280;67585;44.802;10.332;2023-05-07T02:12:40;100950.38;;;19.48;63.51
78121;BME280;67585;44.802;10.332;2023-05-07T02:15:06;100947.09;;;19.37;63.58
78121;BME280;67585;44.802;10.332;2023-05-07T02:17:31;100944.00;;;19.30;62.84
78121;BME280;67585;44.802;10.332;2023-05-07T02:19:58;100940.00;;;19.36;62.82
78121;BME280;67585;44.802;10.332;2023-05-07T02:22:24;100961.44;;;19.20;63.78
78121;BME280;67585;44.802;10.332;2023-05-07T02:24:49;100942.50;;;19.24;63.48
78121;BME280;67585;44.802;10.332;2023-05-07T02:27:15;100951.94;;;19.40;62.77
78121;BME280;67585;44.802;10.332;2023-05-07T02:29:40;100952.72;;;19.63;61.67
78121;BME280;67585;44.802;10.332;2023-05-07T02:32:05;100945.97;;;19.38;62.42
78121;BME280;67585;44.802;10.332;2023-05-07T02:34:31;100941.56;;;19.29;62.36
78121;BME280;67585;44.802;10.332;2023-05-07T02:36:56;100945.94;;;19.30;62.40
78121;BME280;67585;44.802;10.332;2023-05-07T02:39:22;100951.00;;;19.23;62.44
78121;BME280;67585;44.802;10.332;2023-05-07T02:41:47;100966.16;;;19.29;61.53
78121;BME280;67585;44.802;10.332;2023-05-07T02:44:12;100963.78;;;19.13;59.52
78121;BME280;67585;44.802;10.332;2023-05-07T02:46:38;100937.03;;;18.88;56.51
78121;BME280;67585;44.802;10.332;2023-05-07T02:49:03;100947.44;;;18.86;54.81
78121;BME280;67585;44.802;10.332;2023-05-07T02:51:30;100948.34;;;18.95;53.88
78121;BME280;67585;44.802;10.332;2023-05-07T02:53:55;100961.59;;;19.02;53.36
78121;BME280;67585;44.802;10.332;2023-05-07T02:56:21;100947.06;;;18.78;53.16
78121;BME280;67585;44.802;10.332;2023-05-07T02:58:46;100930.88;;;18.68;53.65
78121;BME280;67585;44.802;10.332;2023-05-07T03:01:12;100932.63;;;18.64;53.53
78121;BME280;67585;44.802;10.332;2023-05-07T03:03:39;100956.25;;;18.83;54.18
78121;BME280;67585;44.802;10.332;2023-05-07T03:06:05;100959.69;;;18.88;54.09
78121;BME280;67585;44.802;10.332;2023-05-07T03:08:32;100966.09;;;18.84;54.52
78121;BME280;67585;44.802;10.332;2023-05-07T03:10:57;100944.84;;;18.81;54.10
78121;BME280;67585;44.802;10.332;2023-05-07T03:13:22;100960.44;;;19.03;53.82
78121;BME280;67585;44.802;10.332;2023-05-07T03:15:48;100957.44;;;19.04;53.87
78121;BME280;67585;44.802;10.332;2023-05-07T03:18:13;100951.66;;;19.06;53.86
78121;BME280;67585;44.802;10.332;2023-05-07T03:20:39;100940.59;;;18.74;54.40
78121;BME280;67585;44.802;10.332;2023-05-07T03:23:05;100937.97;;;18.69;54.66
78121;BME280;67585;44.802;10.332;2023-05-07T03:25:30;100957.25;;;18.73;55.43
78121;BME280;67585;44.802;10.332;2023-05-07T03:27:56;100940.88;;;18.59;55.18
78121;BME280;67585;44.802;10.332;2023-05-07T03:30:21;100965.44;;;18.59;55.55
78121;BME280;67585;44.802;10.332;2023-05-07T03:32:47;100964.66;;;18.58;55.83
78121;BME280;67585;44.802;10.332;2023-05-07T03:35:12;100941.91;;;18.49;56.02
78121;BME280;67585;44.802;10.332;2023-05-07T03:37:38;100945.66;;;18.53;55.57
78121;BME280;67585;44.802;10.332;2023-05-07T03:40:04;100961.22;;;18.53;55.91
78121;BME280;67585;44.802;10.332;2023-05-07T03:42:30;100936.88;;;18.43;55.88
78121;BME280;67585;44.802;10.332;2023-05-07T03:44:55;100958.38;;;18.44;56.79
78121;BME280;67585;44.802;10.332;2023-05-07T03:47:21;100963.25;;;18.33;56.75
78121;BME280;67585;44.802;10.332;2023-05-07T03:49:46;100963.44;;;18.37;56.52
78121;BME280;67585;44.802;10.332;2023-05-07T03:52:13;100980.59;;;18.51;56.46
78121;BME280;67585;44.802;10.332;2023-05-07T03:54:38;100946.75;;;18.25;56.96
78121;BME280;67585;44.802;10.332;2023-05-07T03:57:04;100966.47;;;18.22;57.93
78121;BME280;67585;44.802;10.332;2023-05-07T03:59:29;100964.75;;;18.12;57.60
78121;BME280;67585;44.802;10.332;2023-05-07T04:01:54;100945.56;;;18.17;57.21
78121;BME280;67585;44.802;10.332;2023-05-07T04:04:20;100986.78;;;18.43;57.13
78121;BME280;67585;44.802;10.332;2023-05-07T04:06:46;100993.75;;;18.49;57.10
78121;BME280;67585;44.802;10.332;2023-05-07T04:09:11;100991.31;;;18.34;56.78
78121;BME280;67585;44.802;10.332;2023-05-07T04:11:37;100973.03;;;18.34;57.07
78121;BME280;67585;44.802;10.332;2023-05-07T04:14:02;100969.69;;;18.24;56.58
78121;BME280;67585;44.802;10.332;2023-05-07T04:16:28;100986.75;;;18.15;56.92
78121;BME280;67585;44.802;10.332;2023-05-07T04:18:53;100983.41;;;18.05;56.78
78121;BME280;67585;44.802;10.332;2023-05-07T04:21:20;100981.72;;;18.36;56.31
78121;BME280;67585;44.802;10.332;2023-05-07T04:23:46;100990.31;;;18.44;56.39
78121;BME280;67585;44.802;10.332;2023-05-07T04:26:12;101001.13;;;18.49;55.58
78121;BME280;67585;44.802;10.332;2023-05-07T04:28:38;101003.56;;;18.50;55.28
78121;BME280;67585;44.802;10.332;2023-05-07T04:31:04;101013.44;;;18.46;55.22
78121;BME280;67585;44.802;10.332;2023-05-07T04:33:29;100973.09;;;18.15;54.86
78121;BME280;67585;44.802;10.332;2023-05-07T04:35:55;100986.44;;;18.17;54.88
78121;BME280;67585;44.802;10.332;2023-05-07T04:38:20;101010.13;;;18.35;54.85
78121;BME280;67585;44.802;10.332;2023-05-07T04:40:46;101007.56;;;18.25;55.36
78121;BME280;67585;44.802;10.332;2023-05-07T04:43:12;100966.25;;;18.04;55.22
78121;BME280;67585;44.802;10.332;2023-05-07T04:45:38;100991.28;;;18.06;55.28
78121;BME280;67585;44.802;10.332;2023-05-07T04:48:06;101013.34;;;18.24;55.03
78121;BME280;67585;44.802;10.332;2023-05-07T04:50:32;101002.72;;;18.22;54.86
78121;BME280;67585;44.802;10.332;2023-05-07T04:52:58;101022.97;;;18.35;54.83
78121;BME280;67585;44.802;10.332;2023-05-07T04:55:23;101023.03;;;18.30;54.73
78121;BME280;67585;44.802;10.332;2023-05-07T04:57:48;100987.25;;;18.18;54.35
78121;BME280;67585;44.802;10.332;2023-05-07T05:00:14;101013.53;;;18.27;54.84
78121;BME280;67585;44.802;10.332;2023-05-07T05:02:40;101034.84;;;18.25;54.84
78121;BME280;67585;44.802;10.332;2023-05-07T05:05:06;101018.88;;;18.32;54.52
78121;BME280;67585;44.802;10.332;2023-05-07T05:07:32;101020.13;;;18.40;54.98
78121;BME280;67585;44.802;10.332;2023-05-07T05:09:57;101046.81;;;18.43;54.56
78121;BME280;67585;44.802;10.332;2023-05-07T05:12:23;101045.78;;;18.39;55.07
78121;BME280;67585;44.802;10.332;2023-05-07T05:14:48;101023.75;;;18.35;54.99
78121;BME280;67585;44.802;10.332;2023-05-07T05:17:13;101034.88;;;18.39;55.32
78121;BME280;67585;44.802;10.332;2023-05-07T05:19:39;101040.94;;;18.50;55.11
78121;BME280;67585;44.802;10.332;2023-05-07T05:22:05;101031.22;;;18.30;56.02
78121;BME280;67585;44.802;10.332;2023-05-07T05:24:31;101041.84;;;18.59;55.33
78121;BME280;67585;44.802;10.332;2023-05-07T05:26:56;101016.50;;;18.45;55.77
78121;BME280;67585;44.802;10.332;2023-05-07T05:29:22;101028.59;;;18.39;56.31
78121;BME280;67585;44.802;10.332;2023-05-07T05:31:47;101032.34;;;18.56;55.17
78121;BME280;67585;44.802;10.332;2023-05-07T05:34:13;101047.13;;;18.55;55.94
78121;BME280;67585;44.802;10.332;2023-05-07T05:36:38;101052.53;;;18.42;56.19
78121;BME280;67585;44.802;10.332;2023-05-07T05:39:04;101045.41;;;18.60;55.95
78121;BME280;67585;44.802;10.332;2023-05-07T05:41:29;101031.75;;;18.46;56.52
78121;BME280;67585;44.802;10.332;2023-05-07T05:43:55;101048.72;;;18.70;55.67
78121;BME280;67585;44.802;10.332;2023-05-07T05:46:21;101045.72;;;18.72;55.90
78121;BME280;67585;44.802;10.332;2023-05-07T05:48:46;101031.94;;;18.63;56.33
78121;BME280;67585;44.802;10.332;2023-05-07T05:51:12;101044.00;;;18.62;57.16
78121;BME280;67585;44.802;10.332;2023-05-07T05:53:37;101049.34;;;18.81;56.85
78121;BME280;67585;44.802;10.332;2023-05-07T05:56:02;101044.47;;;18.50;56.98
78121;BME280;67585;44.802;10.332;2023-05-07T05:58:28;101030.94;;;18.59;57.01
78121;BME280;67585;44.802;10.332;2023-05-07T06:00:53;101043.88;;;18.67;56.74
78121;BME280;67585;44.802;10.332;2023-05-07T06:03:19;101039.53;;;18.66;57.16
78121;BME280;67585;44.802;10.332;2023-05-07T06:05:45;101028.66;;;18.80;57.27
78121;BME280;67585;44.802;10.332;2023-05-07T06:08:10;101013.88;;;18.67;57.00
78121;BME280;67585;44.802;10.332;2023-05-07T06:10:37;101016.00;;;18.84;57.05
78121;BME280;67585;44.802;10.332;2023-05-07T06:13:02;101010.34;;;18.94;56.29
78121;BME280;67585;44.802;10.332;2023-05-07T06:15:27;101030.75;;;19.11;55.96
78121;BME280;67585;44.802;10.332;2023-05-07T06:17:53;101027.81;;;19.07;56.65
78121;BME280;67585;44.802;10.332;2023-05-07T06:20:18;101034.16;;;19.16;56.25
78121;BME280;67585;44.802;10.332;2023-05-07T06:22:43;101048.09;;;19.29;56.75
78121;BME280;67585;44.802;10.332;2023-05-07T06:25:09;101025.16;;;19.30;55.99
78121;BME280;67585;44.802;10.332;2023-05-07T06:27:34;101006.13;;;19.25;56.26
78121;BME280;67585;44.802;10.332;2023-05-07T06:30:00;101018.34;;;19.27;56.75
78121;BME280;67585;44.802;10.332;2023-05-07T06:32:25;101040.75;;;19.52;56.13
78121;BME280;67585;44.802;10.332;2023-05-07T06:34:51;101021.59;;;19.29;57.20
78121;BME280;67585;44.802;10.332;2023-05-07T06:37:16;101034.72;;;19.63;56.40
78121;BME280;67585;44.802;10.332;2023-05-07T06:39:41;101027.94;;;19.61;56.33
78121;BME280;67585;44.802;10.332;2023-05-07T06:42:07;101033.00;;;19.90;56.18
78121;BME280;67585;44.802;10.332;2023-05-07T06:44:32;101028.66;;;20.12;55.45
78121;BME280;67585;44.802;10.332;2023-05-07T06:46:57;101038.44;;;20.35;55.38
78121;BME280;67585;44.802;10.332;2023-05-07T06:49:23;101035.84;;;20.30;55.15
78121;BME280;67585;44.802;10.332;2023-05-07T06:51:48;101018.88;;;20.19;55.10
78121;BME280;67585;44.802;10.332;2023-05-07T06:54:14;101034.41;;;20.33;54.73
78121;BME280;67585;44.802;10.332;2023-05-07T06:56:39;101042.75;;;20.59;54.31
78121;BME280;67585;44.802;10.332;2023-05-07T06:59:05;101035.25;;;20.73;53.85
78121;BME280;67585;44.802;10.332;2023-05-07T07:01:31;101035.75;;;20.84;54.92
78121;BME280;67585;44.802;10.332;2023-05-07T07:03:56;101026.13;;;21.21;52.91
78121;BME280;67585;44.802;10.332;2023-05-07T07:06:21;101021.81;;;21.29;53.01
78121;BME280;67585;44.802;10.332;2023-05-07T07:08:47;101021.66;;;21.25;53.03
78121;BME280;67585;44.802;10.332;2023-05-07T07:11:12;101008.44;;;21.27;52.57
78121;BME280;67585;44.802;10.332;2023-05-07T07:13:37;101001.50;;;21.12;53.14
78121;BME280;67585;44.802;10.332;2023-05-07T07:16:03;101028.44;;;21.45;51.79
78121;BME280;67585;44.802;10.332;2023-05-07T07:18:29;101024.09;;;21.44;52.48
78121;BME280;67585;44.802;10.332;2023-05-07T07:20:54;101026.66;;;21.41;52.50
78121;BME280;67585;44.802;10.332;2023-05-07T07:23:20;101026.03;;;21.52;51.60
78121;BME280;67585;44.802;10.332;2023-05-07T07:25:46;101032.16;;;21.49;52.31
78121;BME280;67585;44.802;10.332;2023-05-07T07:28:11;101008.28;;;21.50;51.49
78121;BME280;67585;44.802;10.332;2023-05-07T07:30:37;101029.06;;;21.86;51.44
78121;BME280;67585;44.802;10.332;2023-05-07T07:33:03;101022.63;;;21.82;51.04
78121;BME280;67585;44.802;10.332;2023-05-07T07:35:29;101019.03;;;21.98;51.02
78121;BME280;67585;44.802;10.332;2023-05-07T07:37:55;101008.66;;;22.13;50.65
78121;BME280;67585;44.802;10.332;2023-05-07T07:40:20;101017.16;;;22.37;49.78
78121;BME280;67585;44.802;10.332;2023-05-07T07:42:46;101019.63;;;22.30;49.27
78121;BME280;67585;44.802;10.332;2023-05-07T07:45:11;101013.78;;;22.40;49.50
78121;BME280;67585;44.802;10.332;2023-05-07T07:47:37;101013.38;;;22.04;50.60
78121;BME280;67585;44.802;10.332;2023-05-07T07:50:03;101011.38;;;22.30;49.67
78121;BME280;67585;44.802;10.332;2023-05-07T07:52:28;101021.38;;;22.73;48.49
78121;BME280;67585;44.802;10.332;2023-05-07T07:54:54;101015.69;;;22.78;49.01
78121;BME280;67585;44.802;10.332;2023-05-07T07:57:19;101018.03;;;22.89;48.95
78121;BME280;67585;44.802;10.332;2023-05-07T07:59:44;101008.91;;;23.06;48.77
78121;BME280;67585;44.802;10.332;2023-05-07T08:02:10;101013.06;;;23.54;48.13
78121;BME280;67585;44.802;10.332;2023-05-07T08:04:35;101017.72;;;23.62;47.02
78121;BME280;67585;44.802;10.332;2023-05-07T08:07:02;101031.78;;;23.39;47.17
78121;BME280;67585;44.802;10.332;2023-05-07T08:09:27;101033.00;;;23.09;48.75
78121;BME280;67585;44.802;10.332;2023-05-07T08:11:53;101033.41;;;23.40;47.36
78121;BME280;67585;44.802;10.332;2023-05-07T08:14:18;100999.00;;;23.34;47.05
78121;BME280;67585;44.802;10.332;2023-05-07T08:16:44;101020.59;;;23.44;46.37
78121;BME280;67585;44.802;10.332;2023-05-07T08:19:09;101017.16;;;23.06;47.62
78121;BME280;67585;44.802;10.332;2023-05-07T08:21:38;101007.47;;;23.29;48.05
78121;BME280;67585;44.802;10.332;2023-05-07T08:24:04;101023.28;;;23.53;47.19
78121;BME280;67585;44.802;10.332;2023-05-07T08:26:30;100980.69;;;23.59;46.87
78121;BME280;67585;44.802;10.332;2023-05-07T08:28:55;101004.72;;;23.83;46.96
78121;BME280;67585;44.802;10.332;2023-05-07T08:31:21;100996.13;;;23.31;47.52
78121;BME280;67585;44.802;10.332;2023-05-07T08:33:46;100996.47;;;23.83;45.21
78121;BME280;67585;44.802;10.332;2023-05-07T08:36:11;101011.81;;;24.18;45.26
78121;BME280;67585;44.802;10.332;2023-05-07T08:38:37;100997.97;;;23.93;46.11
78121;BME280;67585;44.802;10.332;2023-05-07T08:41:02;101002.91;;;23.33;47.01
78121;BME280;67585;44.802;10.332;2023-05-07T08:43:28;101020.94;;;23.97;46.39
78121;BME280;67585;44.802;10.332;2023-05-07T08:45:58;101023.66;;;24.30;46.21
78121;BME280;67585;44.802;10.332;2023-05-07T08:48:29;101029.16;;;24.43;44.42
78121;BME280;67585;44.802;10.332;2023-05-07T08:50:55;101013.16;;;24.12;45.04
78121;BME280;67585;44.802;10.332;2023-05-07T08:53:20;101005.50;;;24.42;44.64
78121;BME280;67585;44.802;10.332;2023-05-07T08:55:47;101010.38;;;24.82;42.96
78121;BME280;67585;44.802;10.332;2023-05-07T08:58:12;101001.53;;;24.51;43.83
78121;BME280;67585;44.802;10.332;2023-05-07T09:00:39;101008.88;;;24.60;43.63
78121;BME280;67585;44.802;10.332;2023-05-07T09:03:05;100974.06;;;24.80;42.37
78121;BME280;67585;44.802;10.332;2023-05-07T09:05:31;101013.28;;;25.13;42.41
78121;BME280;67585;44.802;10.332;2023-05-07T09:07:59;100993.09;;;25.50;40.95
78121;BME280;67585;44.802;10.332;2023-05-07T09:10:25;100997.38;;;25.75;40.25
78121;BME280;67585;44.802;10.332;2023-05-07T09:12:53;101007.75;;;25.66;41.02
78121;BME280;67585;44.802;10.332;2023-05-07T09:15:19;101000.34;;;25.70;41.29
78121;BME280;67585;44.802;10.332;2023-05-07T09:17:44;100973.72;;;25.34;40.96
78121;BME280;67585;44.802;10.332;2023-05-07T09:20:10;101000.66;;;25.81;40.44
78121;BME280;67585;44.802;10.332;2023-05-07T09:22:38;100997.50;;;25.67;41.14
78121;BME280;67585;44.802;10.332;2023-05-07T09:25:06;100994.56;;;26.51;38.73
78121;BME280;67585;44.802;10.332;2023-05-07T09:27:32;100970.78;;;26.15;38.53
78121;BME280;67585;44.802;10.332;2023-05-07T09:29:57;101000.28;;;26.42;38.64
78121;BME280;67585;44.802;10.332;2023-05-07T09:32:24;101001.34;;;26.38;38.12
78121;BME280;67585;44.802;10.332;2023-05-07T09:34:50;100977.38;;;26.42;38.00
78121;BME280;67585;44.802;10.332;2023-05-07T09:37:15;100992.53;;;26.64;37.92
78121;BME280;67585;44.802;10.332;2023-05-07T09:39:47;100989.31;;;26.62;38.97
78121;BME280;67585;44.802;10.332;2023-05-07T09:42:13;100975.22;;;27.02;36.89
78121;BME280;67585;44.802;10.332;2023-05-07T09:44:43;100991.75;;;27.38;36.77
78121;BME280;67585;44.802;10.332;2023-05-07T09:47:10;100977.31;;;26.90;37.13
78121;BME280;67585;44.802;10.332;2023-05-07T09:49:38;100994.84;;;26.62;37.91
78121;BME280;67585;44.802;10.332;2023-05-07T09:52:05;100997.38;;;27.22;37.44
78121;BME280;67585;44.802;10.332;2023-05-07T09:54:34;101000.44;;;27.56;37.45
78121;BME280;67585;44.802;10.332;2023-05-07T09:57:01;100989.97;;;27.26;37.68
78121;BME280;67585;44.802;10.332;2023-05-07T09:59:30;100973.25;;;27.03;37.68
78121;BME280;67585;44.802;10.332;2023-05-07T10:01:57;100984.00;;;27.43;36.79
78121;BME280;67585;44.802;10.332;2023-05-07T10:04:25;100979.97;;;27.60;36.13
78121;BME280;67585;44.802;10.332;2023-05-07T10:06:51;100985.06;;;27.58;36.53
78121;BME280;67585;44.802;10.332;2023-05-07T10:09:17;100983.19;;;28.28;35.67
78121;BME280;67585;44.802;10.332;2023-05-07T10:11:43;100979.78;;;28.15;35.83
78121;BME280;67585;44.802;10.332;2023-05-07T10:14:09;100977.44;;;28.17;36.40
78121;BME280;67585;44.802;10.332;2023-05-07T10:16:36;100980.19;;;28.40;35.82
78121;BME280;67585;44.802;10.332;2023-05-07T10:19:03;100951.72;;;27.74;35.97
78121;BME280;67585;44.802;10.332;2023-05-07T10:21:30;100975.84;;;27.93;36.23
78121;BME280;67585;44.802;10.332;2023-05-07T10:26:32;100972.94;;;28.32;36.40
78121;BME280;67585;44.802;10.332;2023-05-07T10:29:12;100974.22;;;27.30;37.57
78121;BME280;67585;44.802;10.332;2023-05-07T10:31:50;100982.38;;;27.23;37.80
78121;BME280;67585;44.802;10.332;2023-05-07T10:34:22;100977.97;;;27.80;37.19
78121;BME280;67585;44.802;10.332;2023-05-07T10:36:49;100978.53;;;28.36;36.77
78121;BME280;67585;44.802;10.332;2023-05-07T10:39:17;100981.28;;;28.09;37.66
78121;BME280;67585;44.802;10.332;2023-05-07T10:41:42;100941.75;;;28.12;37.12
78121;BME280;67585;44.802;10.332;2023-05-07T10:44:07;100931.63;;;27.35;37.82
78121;BME280;67585;44.802;10.332;2023-05-07T10:46:33;100938.97;;;27.89;37.94
78121;BME280;67585;44.802;10.332;2023-05-07T10:51:26;100972.81;;;28.48;36.51
78121;BME280;67585;44.802;10.332;2023-05-07T10:56:50;100962.00;;;28.16;37.17
78121;BME280;67585;44.802;10.332;2023-05-07T11:02:00;100945.56;;;28.53;36.26
78121;BME280;67585;44.802;10.332;2023-05-07T11:04:28;100959.91;;;28.09;37.08
78121;BME280;67585;44.802;10.332;2023-05-07T11:12:45;100956.06;;;28.18;36.93
78121;BME280;67585;44.802;10.332;2023-05-07T11:15:07;100949.00;;;27.97;37.60
78121;BME280;67585;44.802;10.332;2023-05-07T11:17:33;100956.81;;;28.15;36.93
78121;BME280;67585;44.802;10.332;2023-05-07T11:20:01;100954.53;;;27.55;38.11
78121;BME280;67585;44.802;10.332;2023-05-07T11:25:05;100949.19;;;28.08;37.71
78121;BME280;67585;44.802;10.332;2023-05-07T11:27:31;100938.28;;;28.19;36.71
78121;BME280;67585;44.802;10.332;2023-05-07T11:29:57;100947.00;;;27.94;37.40
78121;BME280;67585;44.802;10.332;2023-05-07T11:32:27;100948.19;;;28.20;37.13
78121;BME280;67585;44.802;10.332;2023-05-07T11:34:57;100951.38;;;27.53;38.03
78121;BME280;67585;44.802;10.332;2023-05-07T11:37:24;100919.53;;;27.04;39.00
78121;BME280;67585;44.802;10.332;2023-05-07T11:39:50;100944.31;;;27.78;37.84
78121;BME280;67585;44.802;10.332;2023-05-07T11:42:38;100901.63;;;28.02;36.36
78121;BME280;67585;44.802;10.332;2023-05-07T11:45:05;100945.00;;;28.44;35.64
78121;BME280;67585;44.802;10.332;2023-05-07T11:47:32;100937.75;;;28.36;35.98
78121;BME280;67585;44.802;10.332;2023-05-07T11:50:02;100906.28;;;28.21;35.44
78121;BME280;67585;44.802;10.332;2023-05-07T11:52:28;100938.59;;;28.13;36.40
78121;BME280;67585;44.802;10.332;2023-05-07T11:54:58;100913.69;;;28.40;35.58
78121;BME280;67585;44.802;10.332;2023-05-07T11:57:25;100937.19;;;29.07;35.50
78121;BME280;67585;44.802;10.332;2023-05-07T11:59:59;100922.16;;;28.77;35.54
78121;BME280;67585;44.802;10.332;2023-05-07T12:02:25;100943.41;;;28.96;34.73
78121;BME280;67585;44.802;10.332;2023-05-07T12:04:51;100934.88;;;29.12;34.64
78121;BME280;67585;44.802;10.332;2023-05-07T12:07:17;100921.44;;;28.84;35.25
78121;BME280;67585;44.802;10.332;2023-05-07T12:09:44;100929.63;;;29.04;34.89
78121;BME280;67585;44.802;10.332;2023-05-07T12:12:10;100904.25;;;28.18;35.81
78121;BME280;67585;44.802;10.332;2023-05-07T12:14:40;100938.25;;;28.42;35.57
78121;BME280;67585;44.802;10.332;2023-05-07T12:17:07;100930.91;;;28.53;35.98
78121;BME280;67585;44.802;10.332;2023-05-07T12:19:38;100914.06;;;28.65;34.49
78121;BME280;67585;44.802;10.332;2023-05-07T12:22:04;100892.66;;;27.86;36.15
78121;BME280;67585;44.802;10.332;2023-05-07T12:24:43;100922.94;;;28.25;36.06
78121;BME280;67585;44.802;10.332;2023-05-07T12:27:09;100922.22;;;28.05;36.10
78121;BME280;67585;44.802;10.332;2023-05-07T12:29:34;100937.16;;;28.46;35.89
78121;BME280;67585;44.802;10.332;2023-05-07T12:32:00;100930.81;;;28.46;36.19
78121;BME280;67585;44.802;10.332;2023-05-07T12:34:25;100896.47;;;28.54;35.57
78121;BME280;67585;44.802;10.332;2023-05-07T12:36:50;100912.19;;;28.20;36.17
78121;BME280;67585;44.802;10.332;2023-05-07T12:39:16;100915.94;;;28.08;36.88
78121;BME280;67585;44.802;10.332;2023-05-07T12:41:58;100926.03;;;28.20;36.31
78121;BME280;67585;44.802;10.332;2023-05-07T12:44:33;100927.16;;;27.92;36.73
78121;BME280;67585;44.802;10.332;2023-05-07T12:47:02;100926.22;;;28.30;35.79
78121;BME280;67585;44.802;10.332;2023-05-07T12:49:28;100921.41;;;27.58;36.15
78121;BME280;67585;44.802;10.332;2023-05-07T12:51:53;100904.84;;;27.62;36.80
78121;BME280;67585;44.802;10.332;2023-05-07T12:54:29;100906.53;;;28.12;36.65